sensor_id;sensor_type;location;lat;lon;timestamp;P1;durP1;ratioP1;P2;durP2;ratioP2
2672;SDS011;1346;51.558;6.996;2022-11-21T00:01:55;37.80;;;24.63;;
2672;SDS011;1346;51.558;6.996;2022-11-21T00:04:22;38.30;;;25.60;;
2672;SDS011;1346;51.558;6.996;2022-11-21T00:06:49;36.97;;;24.25;;
2672;SDS011;1346;51.558;6.996;2022-11-21T00:09:16;31.05;;;23.58;;
2672;SDS011;1346;51.558;6.996;2022-11-21T00:11:43;34.85;;;23.35;;
2672;SDS011;1346;51.558;6.996;2022-11-21T00:14:10;32.13;;;21.85;;
2672;SDS011;1346;51.558;6.996;2022-11-21T00:16:38;35.05;;;22.20;;
2672;SDS011;1346;51.558;6.996;2022-11-21T00:19:05;33.05;;;22.40;;
2672;SDS011;1346;51.558;6.996;2022-11-21T00:21:32;36.03;;;22.67;;
2672;SDS011;1346;51.558;6.996;2022-11-21T00:23:59;32.63;;;21.05;;
2672;SDS011;1346;51.558;6.996;2022-11-21T00:26:25;28.90;;;20.58;;
2672;SDS011;1346;51.558;6.996;2022-11-21T00:28:52;31.75;;;21.35;;
2672;SDS011;1346;51.558;6.996;2022-11-21T00:31:21;33.28;;;22.35;;
2672;SDS011;1346;51.558;6.996;2022-11-21T00:33:50;37.83;;;24.95;;
2672;SDS011;1346;51.558;6.996;2022-11-21T00:36:17;35.33;;;25.10;;
2672;SDS011;1346;51.558;6.996;2022-11-21T00:38:44;36.22;;;22.90;;
2672;SDS011;1346;51.558;6.996;2022-11-21T00:41:11;32.78;;;22.95;;
2672;SDS011;1346;51.558;6.996;2022-11-21T00:43:38;31.65;;;22.15;;
2672;SDS011;1346;51.558;6.996;2022-11-21T00:46:05;35.47;;;23.20;;
2672;SDS011;1346;51.558;6.996;2022-11-21T00:48:32;34.10;;;22.27;;
2672;SDS011;1346;51.558;6.996;2022-11-21T00:51:00;30.08;;;21.83;;
2672;SDS011;1346;51.558;6.996;2022-11-21T00:53:27;33.85;;;23.83;;
2672;SDS011;1346;51.558;6.996;2022-11-21T00:55:54;36.80;;;24.05;;
2672;SDS011;1346;51.558;6.996;2022-11-21T00:58:21;34.78;;;23.95;;
2672;SDS011;1346;51.558;6.996;2022-11-21T01:00:48;33.90;;;22.52;;
2672;SDS011;1346;51.558;6.996;2022-11-21T01:03:15;36.33;;;23.40;;
2672;SDS011;1346;51.558;6.996;2022-11-21T01:05:42;32.13;;;23.17;;
2672;SDS011;1346;51.558;6.996;2022-11-21T01:08:10;33.63;;;21.63;;
2672;SDS011;1346;51.558;6.996;2022-11-21T01:10:37;36.30;;;22.40;;
2672;SDS011;1346;51.558;6.996;2022-11-21T01:13:04;33.30;;;22.80;;
2672;SDS011;1346;51.558;6.996;2022-11-21T01:15:32;33.03;;;23.25;;
2672;SDS011;1346;51.558;6.996;2022-11-21T01:17:59;35.42;;;23.83;;
2672;SDS011;1346;51.558;6.996;2022-11-21T01:20:26;36.13;;;23.95;;
2672;SDS011;1346;51.558;6.996;2022-11-21T01:22:53;34.25;;;22.73;;
2672;SDS011;1346;51.558;6.996;2022-11-21T01:25:21;33.85;;;24.00;;
2672;SDS011;1346;51.558;6.996;2022-11-21T01:27:48;35.72;;;23.52;;
2672;SDS011;1346;51.558;6.996;2022-11-21T01:30:14;40.53;;;25.02;;
2672;SDS011;1346;51.558;6.996;2022-11-21T01:32:42;38.33;;;24.67;;
2672;SDS011;1346;51.558;6.996;2022-11-21T01:35:12;38.55;;;25.33;;
2672;SDS011;1346;51.558;6.996;2022-11-21T01:37:39;37.83;;;25.30;;
2672;SDS011;1346;51.558;6.996;2022-11-21T01:40:06;40.63;;;26.65;;
2672;SDS011;1346;51.558;6.996;2022-11-21T01:42:47;36.28;;;24.17;;
2672;SDS011;1346;51.558;6.996;2022-11-21T01:48:21;40.90;;;24.85;;
2672;SDS011;1346;51.558;6.996;2022-11-21T01:50:53;41.13;;;25.10;;
2672;SDS011;1346;51.558;6.996;2022-11-21T01:53:25;45.58;;;28.60;;
2672;SDS011;1346;51.558;6.996;2022-11-21T01:55:52;41.03;;;27.33;;
2672;SDS011;1346;51.558;6.996;2022-11-21T01:58:21;40.35;;;26.85;;
2672;SDS011;1346;51.558;6.996;2022-11-21T02:00:49;47.55;;;28.13;;
2672;SDS011;1346;51.558;6.996;2022-11-21T02:03:18;41.28;;;26.75;;
2672;SDS011;1346;51.558;6.996;2022-11-21T02:05:49;49.10;;;30.45;;
2672;SDS011;1346;51.558;6.996;2022-11-21T02:08:19;45.88;;;28.33;;
2672;SDS011;1346;51.558;6.996;2022-11-21T02:10:49;44.22;;;27.20;;
2672;SDS011;1346;51.558;6.996;2022-11-21T02:13:29;43.03;;;27.02;;
2672;SDS011;1346;51.558;6.996;2022-11-21T02:15:56;45.17;;;29.05;;
2672;SDS011;1346;51.558;6.996;2022-11-21T02:18:23;39.00;;;26.05;;
2672;SDS011;1346;51.558;6.996;2022-11-21T02:20:51;42.47;;;27.42;;
2672;SDS011;1346;51.558;6.996;2022-11-21T02:23:25;42.20;;;25.80;;
2672;SDS011;1346;51.558;6.996;2022-11-21T02:26:01;37.60;;;25.15;;
2672;SDS011;1346;51.558;6.996;2022-11-21T02:28:28;50.40;;;29.58;;
2672;SDS011;1346;51.558;6.996;2022-11-21T02:30:55;41.97;;;26.98;;
2672;SDS011;1346;51.558;6.996;2022-11-21T02:33:22;42.45;;;26.60;;
2672;SDS011;1346;51.558;6.996;2022-11-21T02:35:56;40.83;;;28.63;;
2672;SDS011;1346;51.558;6.996;2022-11-21T02:38:24;41.30;;;26.23;;
2672;SDS011;1346;51.558;6.996;2022-11-21T02:40:57;41.60;;;27.30;;
2672;SDS011;1346;51.558;6.996;2022-11-21T02:43:35;46.85;;;28.75;;
2672;SDS011;1346;51.558;6.996;2022-11-21T02:46:07;37.67;;;25.45;;
2672;SDS011;1346;51.558;6.996;2022-11-21T02:48:35;35.13;;;25.63;;
2672;SDS011;1346;51.558;6.996;2022-11-21T02:51:02;38.28;;;24.67;;
2672;SDS011;1346;51.558;6.996;2022-11-21T02:53:29;41.72;;;26.83;;
2672;SDS011;1346;51.558;6.996;2022-11-21T02:55:56;35.65;;;24.50;;
2672;SDS011;1346;51.558;6.996;2022-11-21T02:58:24;36.28;;;24.55;;
2672;SDS011;1346;51.558;6.996;2022-11-21T03:00:51;39.63;;;25.80;;
2672;SDS011;1346;51.558;6.996;2022-11-21T03:03:19;38.22;;;26.90;;
2672;SDS011;1346;51.558;6.996;2022-11-21T03:05:46;37.70;;;26.15;;
2672;SDS011;1346;51.558;6.996;2022-11-21T03:08:13;42.40;;;29.42;;
2672;SDS011;1346;51.558;6.996;2022-11-21T03:10:40;42.95;;;26.95;;
2672;SDS011;1346;51.558;6.996;2022-11-21T03:13:07;40.25;;;26.25;;
2672;SDS011;1346;51.558;6.996;2022-11-21T03:15:35;41.22;;;28.77;;
2672;SDS011;1346;51.558;6.996;2022-11-21T03:18:02;34.38;;;24.80;;
2672;SDS011;1346;51.558;6.996;2022-11-21T03:20:30;38.78;;;24.45;;
2672;SDS011;1346;51.558;6.996;2022-11-21T03:22:58;39.25;;;25.23;;
2672;SDS011;1346;51.558;6.996;2022-11-21T03:25:26;42.40;;;26.52;;
2672;SDS011;1346;51.558;6.996;2022-11-21T03:27:53;38.47;;;26.27;;
2672;SDS011;1346;51.558;6.996;2022-11-21T03:30:21;42.97;;;26.33;;
2672;SDS011;1346;51.558;6.996;2022-11-21T03:32:55;41.78;;;28.50;;
2672;SDS011;1346;51.558;6.996;2022-11-21T03:35:22;39.03;;;27.52;;
2672;SDS011;1346;51.558;6.996;2022-11-21T03:37:50;41.28;;;26.88;;
2672;SDS011;1346;51.558;6.996;2022-11-21T03:40:16;40.85;;;28.00;;
2672;SDS011;1346;51.558;6.996;2022-11-21T03:42:43;43.03;;;27.33;;
2672;SDS011;1346;51.558;6.996;2022-11-21T03:45:10;42.20;;;26.10;;
2672;SDS011;1346;51.558;6.996;2022-11-21T03:47:37;40.33;;;26.58;;
2672;SDS011;1346;51.558;6.996;2022-11-21T03:50:06;41.90;;;27.33;;
2672;SDS011;1346;51.558;6.996;2022-11-21T03:52:34;43.85;;;28.17;;
2672;SDS011;1346;51.558;6.996;2022-11-21T03:55:01;39.47;;;26.55;;
2672;SDS011;1346;51.558;6.996;2022-11-21T03:57:28;41.60;;;27.38;;
2672;SDS011;1346;51.558;6.996;2022-11-21T03:59:55;42.03;;;26.63;;
2672;SDS011;1346;51.558;6.996;2022-11-21T04:02:22;41.72;;;28.80;;
2672;SDS011;1346;51.558;6.996;2022-11-21T04:04:49;39.30;;;26.38;;
2672;SDS011;1346;51.558;6.996;2022-11-21T04:07:17;40.67;;;26.38;;
2672;SDS011;1346;51.558;6.996;2022-11-21T04:09:44;41.60;;;26.05;;
2672;SDS011;1346;51.558;6.996;2022-11-21T04:12:10;39.15;;;25.60;;
2672;SDS011;1346;51.558;6.996;2022-11-21T04:14:37;38.55;;;25.23;;
2672;SDS011;1346;51.558;6.996;2022-11-21T04:17:04;43.03;;;28.20;;
2672;SDS011;1346;51.558;6.996;2022-11-21T04:19:31;45.95;;;28.20;;
2672;SDS011;1346;51.558;6.996;2022-11-21T04:21:58;42.78;;;27.85;;
2672;SDS011;1346;51.558;6.996;2022-11-21T04:24:26;42.03;;;26.63;;
2672;SDS011;1346;51.558;6.996;2022-11-21T04:26:53;46.67;;;29.05;;
2672;SDS011;1346;51.558;6.996;2022-11-21T04:29:20;43.28;;;27.77;;
2672;SDS011;1346;51.558;6.996;2022-11-21T04:31:47;46.80;;;28.95;;
2672;SDS011;1346;51.558;6.996;2022-11-21T04:34:13;48.08;;;30.60;;
2672;SDS011;1346;51.558;6.996;2022-11-21T04:36:40;50.22;;;30.25;;
2672;SDS011;1346;51.558;6.996;2022-11-21T04:39:07;48.55;;;30.13;;
2672;SDS011;1346;51.558;6.996;2022-11-21T04:41:35;51.25;;;32.15;;
2672;SDS011;1346;51.558;6.996;2022-11-21T04:44:02;48.50;;;32.85;;
2672;SDS011;1346;51.558;6.996;2022-11-21T04:46:30;47.55;;;31.30;;
2672;SDS011;1346;51.558;6.996;2022-11-21T04:48:57;47.97;;;29.77;;
2672;SDS011;1346;51.558;6.996;2022-11-21T04:51:23;47.25;;;29.73;;
2672;SDS011;1346;51.558;6.996;2022-11-21T04:53:50;50.80;;;29.77;;
2672;SDS011;1346;51.558;6.996;2022-11-21T04:56:17;46.92;;;29.98;;
2672;SDS011;1346;51.558;6.996;2022-11-21T04:58:45;53.63;;;32.65;;
2672;SDS011;1346;51.558;6.996;2022-11-21T05:01:12;62.63;;;33.30;;
2672;SDS011;1346;51.558;6.996;2022-11-21T05:03:39;59.85;;;32.05;;
2672;SDS011;1346;51.558;6.996;2022-11-21T05:06:06;54.05;;;31.70;;
2672;SDS011;1346;51.558;6.996;2022-11-21T05:08:33;50.28;;;31.20;;
2672;SDS011;1346;51.558;6.996;2022-11-21T05:11:00;46.50;;;29.98;;
2672;SDS011;1346;51.558;6.996;2022-11-21T05:13:45;52.25;;;29.92;;
2672;SDS011;1346;51.558;6.996;2022-11-21T05:16:12;49.95;;;30.90;;
2672;SDS011;1346;51.558;6.996;2022-11-21T05:18:39;47.92;;;29.45;;
2672;SDS011;1346;51.558;6.996;2022-11-21T05:21:06;62.13;;;36.08;;
2672;SDS011;1346;51.558;6.996;2022-11-21T05:23:33;56.95;;;32.70;;
2672;SDS011;1346;51.558;6.996;2022-11-21T05:26:00;52.90;;;30.55;;
2672;SDS011;1346;51.558;6.996;2022-11-21T05:28:27;63.40;;;32.25;;
2672;SDS011;1346;51.558;6.996;2022-11-21T05:30:55;54.53;;;32.45;;
2672;SDS011;1346;51.558;6.996;2022-11-21T05:33:22;57.70;;;33.53;;
2672;SDS011;1346;51.558;6.996;2022-11-21T05:35:49;56.08;;;33.80;;
2672;SDS011;1346;51.558;6.996;2022-11-21T05:38:15;59.17;;;35.22;;
2672;SDS011;1346;51.558;6.996;2022-11-21T05:40:42;67.18;;;35.13;;
2672;SDS011;1346;51.558;6.996;2022-11-21T05:43:09;69.00;;;35.13;;
2672;SDS011;1346;51.558;6.996;2022-11-21T05:45:56;66.18;;;34.72;;
2672;SDS011;1346;51.558;6.996;2022-11-21T05:48:22;68.53;;;35.50;;
2672;SDS011;1346;51.558;6.996;2022-11-21T05:50:49;69.95;;;37.45;;
2672;SDS011;1346;51.558;6.996;2022-11-21T05:53:16;58.60;;;36.47;;
2672;SDS011;1346;51.558;6.996;2022-11-21T05:55:43;59.78;;;35.17;;
2672;SDS011;1346;51.558;6.996;2022-11-21T05:58:11;64.57;;;35.65;;
2672;SDS011;1346;51.558;6.996;2022-11-21T06:00:38;64.38;;;34.42;;
2672;SDS011;1346;51.558;6.996;2022-11-21T06:03:07;61.53;;;34.65;;
2672;SDS011;1346;51.558;6.996;2022-11-21T06:05:52;67.53;;;36.20;;
2672;SDS011;1346;51.558;6.996;2022-11-21T06:08:25;74.15;;;37.60;;
2672;SDS011;1346;51.558;6.996;2022-11-21T06:10:52;72.43;;;35.72;;
2672;SDS011;1346;51.558;6.996;2022-11-21T06:13:19;70.53;;;38.72;;
2672;SDS011;1346;51.558;6.996;2022-11-21T06:15:49;62.53;;;34.70;;
2672;SDS011;1346;51.558;6.996;2022-11-21T06:18:24;78.85;;;36.67;;
2672;SDS011;1346;51.558;6.996;2022-11-21T06:20:52;72.00;;;37.45;;
2672;SDS011;1346;51.558;6.996;2022-11-21T06:23:19;88.90;;;38.45;;
2672;SDS011;1346;51.558;6.996;2022-11-21T06:25:46;74.05;;;36.33;;
2672;SDS011;1346;51.558;6.996;2022-11-21T06:28:13;74.07;;;36.40;;
2672;SDS011;1346;51.558;6.996;2022-11-21T06:30:40;62.15;;;33.38;;
2672;SDS011;1346;51.558;6.996;2022-11-21T06:33:06;70.35;;;36.15;;
2672;SDS011;1346;51.558;6.996;2022-11-21T06:39:15;59.85;;;33.63;;
2672;SDS011;1346;51.558;6.996;2022-11-21T06:41:42;73.95;;;34.35;;
2672;SDS011;1346;51.558;6.996;2022-11-21T06:44:14;70.97;;;36.08;;
2672;SDS011;1346;51.558;6.996;2022-11-21T06:46:42;62.25;;;33.00;;
2672;SDS011;1346;51.558;6.996;2022-11-21T06:49:09;77.15;;;35.88;;
2672;SDS011;1346;51.558;6.996;2022-11-21T06:51:36;63.42;;;32.08;;
2672;SDS011;1346;51.558;6.996;2022-11-21T06:54:03;63.72;;;33.30;;
2672;SDS011;1346;51.558;6.996;2022-11-21T06:56:31;72.30;;;35.15;;
2672;SDS011;1346;51.558;6.996;2022-11-21T06:58:58;59.63;;;33.67;;
2672;SDS011;1346;51.558;6.996;2022-11-21T07:01:25;65.75;;;33.38;;
2672;SDS011;1346;51.558;6.996;2022-11-21T07:03:52;64.20;;;31.13;;
2672;SDS011;1346;51.558;6.996;2022-11-21T07:06:20;77.15;;;34.67;;
2672;SDS011;1346;51.558;6.996;2022-11-21T07:08:47;64.47;;;31.92;;
2672;SDS011;1346;51.558;6.996;2022-11-21T07:11:17;72.70;;;33.85;;
2672;SDS011;1346;51.558;6.996;2022-11-21T07:13:45;66.60;;;33.33;;
2672;SDS011;1346;51.558;6.996;2022-11-21T07:16:11;67.07;;;32.47;;
2672;SDS011;1346;51.558;6.996;2022-11-21T07:18:39;75.13;;;35.22;;
2672;SDS011;1346;51.558;6.996;2022-11-21T07:21:07;79.45;;;36.45;;
2672;SDS011;1346;51.558;6.996;2022-11-21T07:23:35;77.35;;;32.55;;
2672;SDS011;1346;51.558;6.996;2022-11-21T07:26:02;79.30;;;34.65;;
2672;SDS011;1346;51.558;6.996;2022-11-21T07:28:31;77.65;;;35.95;;
2672;SDS011;1346;51.558;6.996;2022-11-21T07:31:00;76.20;;;35.33;;
2672;SDS011;1346;51.558;6.996;2022-11-21T07:33:28;75.85;;;36.67;;
2672;SDS011;1346;51.558;6.996;2022-11-21T07:35:55;92.70;;;37.88;;
2672;SDS011;1346;51.558;6.996;2022-11-21T07:38:23;85.20;;;36.38;;
2672;SDS011;1346;51.558;6.996;2022-11-21T07:40:50;82.65;;;37.63;;
2672;SDS011;1346;51.558;6.996;2022-11-21T07:43:18;74.57;;;35.08;;
2672;SDS011;1346;51.558;6.996;2022-11-21T07:45:44;76.47;;;35.78;;
2672;SDS011;1346;51.558;6.996;2022-11-21T07:48:13;78.00;;;35.13;;
2672;SDS011;1346;51.558;6.996;2022-11-21T07:50:40;87.72;;;37.25;;
2672;SDS011;1346;51.558;6.996;2022-11-21T07:53:08;80.07;;;36.40;;
2672;SDS011;1346;51.558;6.996;2022-11-21T07:55:36;71.35;;;34.33;;
2672;SDS011;1346;51.558;6.996;2022-11-21T07:58:03;76.22;;;36.20;;
2672;SDS011;1346;51.558;6.996;2022-11-21T08:00:32;84.13;;;36.17;;
2672;SDS011;1346;51.558;6.996;2022-11-21T08:03:02;72.40;;;32.70;;
2672;SDS011;1346;51.558;6.996;2022-11-21T08:05:34;75.95;;;36.03;;
2672;SDS011;1346;51.558;6.996;2022-11-21T08:08:01;83.13;;;37.10;;
2672;SDS011;1346;51.558;6.996;2022-11-21T08:10:29;92.78;;;39.65;;
2672;SDS011;1346;51.558;6.996;2022-11-21T08:12:56;76.32;;;35.53;;
2672;SDS011;1346;51.558;6.996;2022-11-21T08:15:23;78.18;;;36.53;;
2672;SDS011;1346;51.558;6.996;2022-11-21T08:17:50;76.43;;;36.08;;
2672;SDS011;1346;51.558;6.996;2022-11-21T08:20:16;79.05;;;36.78;;
2672;SDS011;1346;51.558;6.996;2022-11-21T08:22:45;73.90;;;38.05;;
2672;SDS011;1346;51.558;6.996;2022-11-21T08:25:12;85.22;;;37.33;;
2672;SDS011;1346;51.558;6.996;2022-11-21T08:27:39;86.32;;;37.88;;
2672;SDS011;1346;51.558;6.996;2022-11-21T08:30:06;79.47;;;36.75;;
2672;SDS011;1346;51.558;6.996;2022-11-21T08:32:36;73.50;;;32.28;;
2672;SDS011;1346;51.558;6.996;2022-11-21T08:35:04;81.28;;;36.40;;
2672;SDS011;1346;51.558;6.996;2022-11-21T08:37:32;75.15;;;36.03;;
2672;SDS011;1346;51.558;6.996;2022-11-21T08:40:00;81.57;;;36.45;;
2672;SDS011;1346;51.558;6.996;2022-11-21T08:42:27;67.72;;;34.55;;
2672;SDS011;1346;51.558;6.996;2022-11-21T08:44:54;71.00;;;34.72;;
2672;SDS011;1346;51.558;6.996;2022-11-21T08:47:21;70.70;;;35.40;;
2672;SDS011;1346;51.558;6.996;2022-11-21T08:49:48;76.03;;;32.60;;
2672;SDS011;1346;51.558;6.996;2022-11-21T08:52:15;71.78;;;35.40;;
2672;SDS011;1346;51.558;6.996;2022-11-21T08:54:42;69.03;;;34.50;;
2672;SDS011;1346;51.558;6.996;2022-11-21T08:57:11;76.60;;;36.78;;
2672;SDS011;1346;51.558;6.996;2022-11-21T08:59:38;79.75;;;34.75;;
2672;SDS011;1346;51.558;6.996;2022-11-21T09:02:05;77.03;;;35.78;;
2672;SDS011;1346;51.558;6.996;2022-11-21T09:04:35;70.53;;;33.65;;
2672;SDS011;1346;51.558;6.996;2022-11-21T09:07:02;68.63;;;34.90;;
2672;SDS011;1346;51.558;6.996;2022-11-21T09:09:29;65.15;;;31.27;;
2672;SDS011;1346;51.558;6.996;2022-11-21T09:11:55;66.32;;;34.30;;
2672;SDS011;1346;51.558;6.996;2022-11-21T09:14:24;65.25;;;30.80;;
2672;SDS011;1346;51.558;6.996;2022-11-21T09:17:11;64.68;;;31.60;;
2672;SDS011;1346;51.558;6.996;2022-11-21T09:19:56;68.95;;;33.95;;
2672;SDS011;1346;51.558;6.996;2022-11-21T09:22:23;64.05;;;32.22;;
2672;SDS011;1346;51.558;6.996;2022-11-21T09:24:50;64.05;;;32.45;;
2672;SDS011;1346;51.558;6.996;2022-11-21T09:27:17;65.30;;;31.30;;
2672;SDS011;1346;51.558;6.996;2022-11-21T09:29:45;67.88;;;34.70;;
2672;SDS011;1346;51.558;6.996;2022-11-21T09:32:12;64.63;;;33.67;;
2672;SDS011;1346;51.558;6.996;2022-11-21T09:34:39;74.18;;;34.72;;
2672;SDS011;1346;51.558;6.996;2022-11-21T09:37:06;76.05;;;31.73;;
2672;SDS011;1346;51.558;6.996;2022-11-21T09:39:33;79.63;;;33.05;;
2672;SDS011;1346;51.558;6.996;2022-11-21T09:42:02;72.32;;;31.05;;
2672;SDS011;1346;51.558;6.996;2022-11-21T09:45:00;73.63;;;33.03;;
2672;SDS011;1346;51.558;6.996;2022-11-21T09:47:34;62.67;;;30.80;;
2672;SDS011;1346;51.558;6.996;2022-11-21T09:50:20;63.08;;;32.03;;
2672;SDS011;1346;51.558;6.996;2022-11-21T09:52:55;75.03;;;33.28;;
2672;SDS011;1346;51.558;6.996;2022-11-21T09:55:28;64.93;;;31.70;;
2672;SDS011;1346;51.558;6.996;2022-11-21T09:58:12;69.97;;;31.85;;
2672;SDS011;1346;51.558;6.996;2022-11-21T10:00:50;76.68;;;33.28;;
2672;SDS011;1346;51.558;6.996;2022-11-21T10:03:19;81.70;;;36.13;;
2672;SDS011;1346;51.558;6.996;2022-11-21T10:05:51;75.03;;;34.00;;
2672;SDS011;1346;51.558;6.996;2022-11-21T10:08:26;90.40;;;36.92;;
2672;SDS011;1346;51.558;6.996;2022-11-21T10:11:03;71.55;;;35.22;;
2672;SDS011;1346;51.558;6.996;2022-11-21T10:13:45;72.05;;;33.80;;
2672;SDS011;1346;51.558;6.996;2022-11-21T10:16:30;70.85;;;33.78;;
2672;SDS011;1346;51.558;6.996;2022-11-21T10:19:17;76.15;;;32.55;;
2672;SDS011;1346;51.558;6.996;2022-11-21T10:22:16;77.75;;;33.00;;
2672;SDS011;1346;51.558;6.996;2022-11-21T10:25:00;88.68;;;37.22;;
2672;SDS011;1346;51.558;6.996;2022-11-21T10:27:37;74.32;;;36.65;;
2672;SDS011;1346;51.558;6.996;2022-11-21T10:30:13;69.03;;;32.83;;
2672;SDS011;1346;51.558;6.996;2022-11-21T10:32:45;82.00;;;35.65;;
2672;SDS011;1346;51.558;6.996;2022-11-21T10:35:15;81.65;;;35.20;;
2672;SDS011;1346;51.558;6.996;2022-11-21T10:37:47;75.97;;;33.20;;
2672;SDS011;1346;51.558;6.996;2022-11-21T10:40:29;75.80;;;35.65;;
2672;SDS011;1346;51.558;6.996;2022-11-21T10:43:03;73.63;;;32.97;;
2672;SDS011;1346;51.558;6.996;2022-11-21T10:45:49;75.47;;;34.28;;
2672;SDS011;1346;51.558;6.996;2022-11-21T10:48:17;61.50;;;30.80;;
2672;SDS011;1346;51.558;6.996;2022-11-21T10:51:02;67.10;;;33.30;;
2672;SDS011;1346;51.558;6.996;2022-11-21T10:53:44;76.20;;;34.75;;
2672;SDS011;1346;51.558;6.996;2022-11-21T10:56:28;79.10;;;33.95;;
2672;SDS011;1346;51.558;6.996;2022-11-21T10:58:59;73.68;;;33.35;;
2672;SDS011;1346;51.558;6.996;2022-11-21T11:01:38;64.00;;;33.17;;
2672;SDS011;1346;51.558;6.996;2022-11-21T11:04:07;69.55;;;35.88;;
2672;SDS011;1346;51.558;6.996;2022-11-21T11:06:44;69.43;;;34.72;;
2672;SDS011;1346;51.558;6.996;2022-11-21T11:09:26;67.40;;;33.38;;
2672;SDS011;1346;51.558;6.996;2022-11-21T11:15:15;68.50;;;33.17;;
2672;SDS011;1346;51.558;6.996;2022-11-21T11:17:47;82.13;;;35.90;;
2672;SDS011;1346;51.558;6.996;2022-11-21T11:20:29;76.68;;;35.30;;
2672;SDS011;1346;51.558;6.996;2022-11-21T11:23:15;71.28;;;35.25;;
2672;SDS011;1346;51.558;6.996;2022-11-21T11:25:50;68.15;;;34.83;;
2672;SDS011;1346;51.558;6.996;2022-11-21T11:28:19;64.18;;;33.15;;
2672;SDS011;1346;51.558;6.996;2022-11-21T11:30:48;64.72;;;33.80;;
2672;SDS011;1346;51.558;6.996;2022-11-21T11:33:26;60.63;;;31.27;;
2672;SDS011;1346;51.558;6.996;2022-11-21T11:36:07;60.08;;;32.15;;
2672;SDS011;1346;51.558;6.996;2022-11-21T11:38:41;75.47;;;33.22;;
2672;SDS011;1346;51.558;6.996;2022-11-21T11:41:16;56.78;;;30.25;;
2672;SDS011;1346;51.558;6.996;2022-11-21T11:44:26;54.30;;;31.33;;
2672;SDS011;1346;51.558;6.996;2022-11-21T11:47:20;59.22;;;31.25;;
2672;SDS011;1346;51.558;6.996;2022-11-21T11:49:56;58.22;;;31.05;;
2672;SDS011;1346;51.558;6.996;2022-11-21T11:52:43;55.88;;;30.33;;
2672;SDS011;1346;51.558;6.996;2022-11-21T11:55:22;58.05;;;30.80;;
2672;SDS011;1346;51.558;6.996;2022-11-21T11:57:59;57.22;;;30.95;;
2672;SDS011;1346;51.558;6.996;2022-11-21T12:00:32;51.90;;;29.95;;
2672;SDS011;1346;51.558;6.996;2022-11-21T12:03:10;55.13;;;29.23;;
2672;SDS011;1346;51.558;6.996;2022-11-21T12:05:49;52.55;;;30.33;;
2672;SDS011;1346;51.558;6.996;2022-11-21T12:08:28;47.33;;;27.13;;
2672;SDS011;1346;51.558;6.996;2022-11-21T12:11:24;47.55;;;25.65;;
2672;SDS011;1346;51.558;6.996;2022-11-21T12:14:19;51.50;;;27.20;;
2672;SDS011;1346;51.558;6.996;2022-11-21T12:17:18;46.95;;;25.23;;
2672;SDS011;1346;51.558;6.996;2022-11-21T12:19:52;46.60;;;26.88;;
2672;SDS011;1346;51.558;6.996;2022-11-21T12:22:21;39.83;;;24.60;;
2672;SDS011;1346;51.558;6.996;2022-11-21T12:24:49;36.15;;;21.55;;
2672;SDS011;1346;51.558;6.996;2022-11-21T12:27:19;40.95;;;24.60;;
2672;SDS011;1346;51.558;6.996;2022-11-21T12:29:57;33.40;;;21.80;;
2672;SDS011;1346;51.558;6.996;2022-11-21T12:33:00;28.13;;;18.15;;
2672;SDS011;1346;51.558;6.996;2022-11-21T12:35:45;27.52;;;17.95;;
2672;SDS011;1346;51.558;6.996;2022-11-21T12:38:40;29.52;;;15.05;;
2672;SDS011;1346;51.558;6.996;2022-11-21T12:41:26;23.55;;;14.77;;
2672;SDS011;1346;51.558;6.996;2022-11-21T12:44:22;19.83;;;13.20;;
2672;SDS011;1346;51.558;6.996;2022-11-21T12:47:12;18.17;;;12.77;;
2672;SDS011;1346;51.558;6.996;2022-11-21T12:49:55;19.70;;;12.65;;
2672;SDS011;1346;51.558;6.996;2022-11-21T12:52:46;15.25;;;10.70;;
2672;SDS011;1346;51.558;6.996;2022-11-21T12:55:35;18.88;;;11.68;;
2672;SDS011;1346;51.558;6.996;2022-11-21T12:58:07;25.25;;;11.68;;
2672;SDS011;1346;51.558;6.996;2022-11-21T13:00:47;15.35;;;10.60;;
2672;SDS011;1346;51.558;6.996;2022-11-21T13:03:31;14.85;;;10.85;;
2672;SDS011;1346;51.558;6.996;2022-11-21T13:06:17;15.40;;;10.35;;
2672;SDS011;1346;51.558;6.996;2022-11-21T13:08:47;14.95;;;10.02;;
2672;SDS011;1346;51.558;6.996;2022-11-21T13:11:25;19.30;;;11.80;;
2672;SDS011;1346;51.558;6.996;2022-11-21T13:14:26;18.23;;;11.23;;
2672;SDS011;1346;51.558;6.996;2022-11-21T13:17:03;16.55;;;11.25;;
2672;SDS011;1346;51.558;6.996;2022-11-21T13:19:48;20.52;;;11.15;;
2672;SDS011;1346;51.558;6.996;2022-11-21T13:31:04;22.80;;;12.90;;
2672;SDS011;1346;51.558;6.996;2022-11-21T13:33:55;17.95;;;12.18;;
2672;SDS011;1346;51.558;6.996;2022-11-21T13:36:36;17.73;;;10.65;;
2672;SDS011;1346;51.558;6.996;2022-11-21T13:41:57;17.85;;;10.73;;
2672;SDS011;1346;51.558;6.996;2022-11-21T13:44:50;14.77;;;11.20;;
2672;SDS011;1346;51.558;6.996;2022-11-21T13:47:37;20.85;;;12.25;;
2672;SDS011;1346;51.558;6.996;2022-11-21T13:50:39;14.55;;;10.95;;
2672;SDS011;1346;51.558;6.996;2022-11-21T13:53:29;16.48;;;11.05;;
2672;SDS011;1346;51.558;6.996;2022-11-21T13:56:23;25.38;;;13.18;;
2672;SDS011;1346;51.558;6.996;2022-11-21T13:59:03;13.50;;;10.45;;
2672;SDS011;1346;51.558;6.996;2022-11-21T14:01:51;16.35;;;11.23;;
2672;SDS011;1346;51.558;6.996;2022-11-21T14:04:41;20.95;;;12.18;;
2672;SDS011;1346;51.558;6.996;2022-11-21T14:07:37;21.58;;;13.45;;
2672;SDS011;1346;51.558;6.996;2022-11-21T14:10:16;19.48;;;13.20;;
2672;SDS011;1346;51.558;6.996;2022-11-21T14:12:55;23.70;;;13.50;;
2672;SDS011;1346;51.558;6.996;2022-11-21T14:15:24;18.98;;;13.15;;
2672;SDS011;1346;51.558;6.996;2022-11-21T14:17:57;21.83;;;14.23;;
2672;SDS011;1346;51.558;6.996;2022-11-21T14:20:27;20.75;;;13.65;;
2672;SDS011;1346;51.558;6.996;2022-11-21T14:22:59;17.17;;;12.88;;
2672;SDS011;1346;51.558;6.996;2022-11-21T14:25:34;23.88;;;13.70;;
2672;SDS011;1346;51.558;6.996;2022-11-21T14:28:08;27.20;;;13.82;;
2672;SDS011;1346;51.558;6.996;2022-11-21T14:30:40;22.05;;;14.70;;
2672;SDS011;1346;51.558;6.996;2022-11-21T14:33:22;16.83;;;12.35;;
2672;SDS011;1346;51.558;6.996;2022-11-21T14:35:54;14.82;;;12.05;;
2672;SDS011;1346;51.558;6.996;2022-11-21T14:38:25;17.50;;;11.95;;
2672;SDS011;1346;51.558;6.996;2022-11-21T14:44:01;22.30;;;14.32;;
2672;SDS011;1346;51.558;6.996;2022-11-21T14:46:41;15.50;;;11.68;;
2672;SDS011;1346;51.558;6.996;2022-11-21T14:49:19;19.08;;;13.60;;
2672;SDS011;1346;51.558;6.996;2022-11-21T14:52:00;19.25;;;14.02;;
2672;SDS011;1346;51.558;6.996;2022-11-21T14:54:42;18.00;;;13.07;;
2672;SDS011;1346;51.558;6.996;2022-11-21T14:57:18;17.48;;;14.07;;
2672;SDS011;1346;51.558;6.996;2022-11-21T14:59:50;18.00;;;13.43;;
2672;SDS011;1346;51.558;6.996;2022-11-21T15:02:18;17.83;;;13.23;;
2672;SDS011;1346;51.558;6.996;2022-11-21T15:04:48;21.65;;;13.82;;
2672;SDS011;1346;51.558;6.996;2022-11-21T15:07:19;17.10;;;13.15;;
2672;SDS011;1346;51.558;6.996;2022-11-21T15:09:48;19.08;;;12.40;;
2672;SDS011;1346;51.558;6.996;2022-11-21T15:12:19;13.45;;;10.27;;
2672;SDS011;1346;51.558;6.996;2022-11-21T15:14:55;16.00;;;11.27;;
2672;SDS011;1346;51.558;6.996;2022-11-21T15:17:27;13.75;;;10.20;;
2672;SDS011;1346;51.558;6.996;2022-11-21T15:20:05;10.98;;;9.60;;
2672;SDS011;1346;51.558;6.996;2022-11-21T15:22:46;21.77;;;11.07;;
2672;SDS011;1346;51.558;6.996;2022-11-21T15:25:14;16.67;;;11.02;;
2672;SDS011;1346;51.558;6.996;2022-11-21T15:27:45;19.58;;;12.35;;
2672;SDS011;1346;51.558;6.996;2022-11-21T15:30:23;15.95;;;12.30;;
2672;SDS011;1346;51.558;6.996;2022-11-21T15:33:03;15.75;;;11.88;;
2672;SDS011;1346;51.558;6.996;2022-11-21T15:35:49;14.48;;;11.35;;
2672;SDS011;1346;51.558;6.996;2022-11-21T15:38:20;16.13;;;11.32;;
2672;SDS011;1346;51.558;6.996;2022-11-21T15:43:51;17.95;;;11.30;;
2672;SDS011;1346;51.558;6.996;2022-11-21T15:46:21;18.67;;;11.10;;